Time;durP1;ratioP1;P1;durP2;ratioP2;P2;SDS_P1;SDS_P2;PMS_P1;PMS_P2;Temp;Humidity;BMP_temperature;BMP_pressure;BME280_temperature;BME280_humidity;BME280_pressure;Samples;Min_cycle;Max_cycle;Signal;HPM_P1;HPM_P2
2021/07/11 00:00:15;;;;;;;9.32;8.43;;;;;;;20.01;61.84;101196.88;697287;28;68470;-65
2021/07/11 00:00:36;;;;;;;9.90;8.90;;;;;;;19.99;61.70;101189.69;693722;28;37871;-65
2021/07/11 00:00:58;;;;;;;9.52;8.73;;;;;;;20.00;61.82;101198.78;696600;28;23549;-65
2021/07/11 00:01:19;;;;;;;9.70;8.77;;;;;;;20.01;61.90;101196.88;695674;28;46198;-64
2021/07/11 00:01:41;;;;;;;10.27;8.73;;;;;;;20.01;61.86;101202.34;696426;28;22517;-65
2021/07/11 00:02:04;;;;;;;9.60;8.60;;;;;;;20.00;61.81;101201.53;696002;28;14994;-65
2021/07/11 00:02:32;;;;;;;9.77;8.82;;;;;;;19.99;61.92;101191.63;697449;28;1074;-65
2021/07/11 00:02:55;;;;;;;9.80;8.80;;;;;;;19.99;61.88;101200.66;697341;28;63499;-65
2021/07/11 00:03:16;;;;;;;10.43;8.73;;;;;;;19.99;61.91;101195.19;697200;28;70360;-64
2021/07/11 00:03:37;;;;;;;9.75;8.77;;;;;;;19.99;62.08;101197.94;699581;28;5990;-65
2021/07/11 00:03:58;;;;;;;9.68;8.77;;;;;;;19.98;61.79;101193.53;699744;28;13008;-65
2021/07/11 00:04:20;;;;;;;10.07;9.02;;;;;;;19.98;61.93;101196.28;699487;28;24391;-64
2021/07/11 00:04:41;;;;;;;11.07;8.70;;;;;;;19.98;62.01;101196.28;698379;28;40233;-64
2021/07/11 00:05:05;;;;;;;10.82;8.48;;;;;;;19.98;62.13;101190.78;698465;28;23494;-65
2021/07/11 00:05:27;;;;;;;9.23;8.35;;;;;;;19.99;62.04;101197.09;696708;28;58459;-64
2021/07/11 00:05:49;;;;;;;9.73;8.50;;;;;;;19.99;62.00;101191.63;697995;28;69800;-65
2021/07/11 00:06:10;;;;;;;9.25;8.35;;;;;;;20.00;62.04;101196.03;697774;28;45657;-65
2021/07/11 00:06:34;;;;;;;9.50;8.50;;;;;;;20.00;62.00;101196.03;699289;28;24383;-65
2021/07/11 00:06:55;;;;;;;12.35;8.73;;;;;;;20.00;62.27;101193.31;697670;28;57047;-65
2021/07/11 00:07:17;;;;;;;10.45;8.88;;;;;;;19.99;61.87;101197.09;699816;28;958;-64
2021/07/11 00:07:38;;;;;;;9.80;8.85;;;;;;;20.00;62.18;101193.31;698344;28;47285;-65
2021/07/11 00:07:59;;;;;;;9.43;8.43;;;;;;;20.01;61.99;101194.13;699652;28;22401;-64
2021/07/11 00:08:20;;;;;;;9.55;8.43;;;;;;;20.00;61.74;101193.31;699476;28;7879;-65
2021/07/11 00:08:41;;;;;;;9.52;8.55;;;;;;;20.01;62.10;101192.22;698649;28;23533;-65
2021/07/11 00:09:04;;;;;;;9.68;8.63;;;;;;;20.01;61.99;101194.13;699127;28;23485;-65
2021/07/11 00:09:25;;;;;;;9.32;8.30;;;;;;;19.99;62.07;101192.44;696563;28;69577;-64
2021/07/11 00:09:46;;;;;;;9.30;8.40;;;;;;;19.99;62.11;101191.63;699257;28;20863;-65
2021/07/11 00:10:09;;;;;;;9.90;8.65;;;;;;;19.96;62.06;101190.16;699212;28;22442;-65
2021/07/11 00:10:31;;;;;;;9.20;8.35;;;;;;;19.96;62.23;101189.34;697435;28;61233;-65
2021/07/11 00:10:53;;;;;;;9.82;8.90;;;;;;;19.95;62.24;101193.13;698351;28;45244;-64
2021/07/11 00:11:14;;;;;;;10.35;8.93;;;;;;;19.95;62.16;101199.47;698184;28;46380;-65
2021/07/11 00:11:35;;;;;;;10.23;9.18;;;;;;;19.95;62.31;101184.91;699613;28;23423;-64
2021/07/11 00:11:56;;;;;;;11.27;9.02;;;;;;;19.95;62.32;101187.66;699716;28;10275;-65
2021/07/11 00:12:17;;;;;;;9.93;8.52;;;;;;;19.96;62.33;101186.59;696345;28;21412;-65
2021/07/11 00:12:39;;;;;;;9.70;8.57;;;;;;;19.95;62.27;101188.50;696384;28;22322;-65
2021/07/11 00:13:01;;;;;;;9.65;8.70;;;;;;;19.97;62.32;101185.53;695474;28;46323;-65
2021/07/11 00:13:22;;;;;;;10.65;9.02;;;;;;;19.95;62.50;101184.91;695675;28;44169;-65
2021/07/11 00:13:43;;;;;;;9.80;8.73;;;;;;;19.95;62.17;101184.91;696942;28;1747;-65
2021/07/11 00:14:05;;;;;;;10.30;9.18;;;;;;;19.95;62.42;101190.38;697024;28;23423;-65
2021/07/11 00:14:26;;;;;;;9.93;8.93;;;;;;;19.94;62.37;101184.06;699585;28;22556;-65
2021/07/11 00:14:48;;;;;;;9.95;8.82;;;;;;;19.93;62.55;101182.38;699933;28;898;-65
2021/07/11 00:15:13;;;;;;;11.15;8.75;;;;;;;19.93;62.48;101189.78;698996;28;15944;-65
2021/07/11 00:15:34;;;;;;;9.30;8.25;;;;;;;19.93;62.50;101190.63;698780;28;49179;-64
2021/07/11 00:15:55;;;;;;;10.88;8.60;;;;;;;19.88;62.61;101178.69;700353;28;929;-64
2021/07/11 00:16:17;;;;;;;12.20;9.20;;;;;;;19.93;62.56;101190.63;699460;28;22741;-64
2021/07/11 00:16:39;;;;;;;9.88;8.85;;;;;;;19.92;62.44;101183.47;699698;28;1143;-65
2021/07/11 00:17:00;;;;;;;10.23;9.07;;;;;;;19.92;62.47;101180.72;698349;28;41956;-64
2021/07/11 00:17:22;;;;;;;10.68;8.90;;;;;;;19.92;62.58;101186.22;699561;28;20853;-65
2021/07/11 00:17:43;;;;;;;10.85;9.30;;;;;;;19.92;62.42;101188.09;699626;28;19847;-65
2021/07/11 00:18:05;;;;;;;10.13;9.10;;;;;;;19.92;62.42;101185.34;699803;28;12201;-63
2021/07/11 00:18:26;;;;;;;9.75;8.85;;;;;;;19.92;62.50;101188.09;698281;28;44366;-64
2021/07/11 00:18:47;;;;;;;9.90;8.93;;;;;;;19.92;62.35;101188.09;698576;28;1528;-65
2021/07/11 00:19:08;;;;;;;9.70;8.70;;;;;;;19.91;62.38;101184.53;699301;28;9041;-64
2021/07/11 00:19:30;;;;;;;11.13;8.95;;;;;;;19.89;62.43;101180.34;698843;28;1041;-65
2021/07/11 00:19:51;;;;;;;9.98;8.98;;;;;;;19.89;62.38;101188.56;698740;28;33950;-64
2021/07/11 00:20:14;;;;;;;9.35;8.38;;;;;;;19.88;62.51;101187.72;698863;28;14187;-63
2021/07/11 00:20:36;;;;;;;9.38;8.48;;;;;;;19.88;62.72;101190.47;699750;28;5194;-64
2021/07/11 00:20:57;;;;;;;10.25;9.15;;;;;;;19.88;62.39;101186.91;698270;28;46356;-64
2021/07/11 00:21:19;;;;;;;10.20;9.20;;;;;;;19.87;62.20;101186.03;699458;28;23447;-64
2021/07/11 00:21:40;;;;;;;9.85;8.85;;;;;;;19.86;62.37;101186.28;695412;28;48633;-64
2021/07/11 00:22:02;;;;;;;9.63;8.68;;;;;;;19.85;62.39;101184.63;696294;28;22311;-64
2021/07/11 00:22:26;;;;;;;10.32;9.30;;;;;;;19.84;62.55;101183.75;696128;28;36616;-64
2021/07/11 00:22:48;;;;;;;10.15;9.15;;;;;;;19.84;62.42;101188.41;696862;28;16193;-64
2021/07/11 00:23:09;;;;;;;10.55;8.88;;;;;;;19.82;62.41;101183.16;695837;28;40860;-64
2021/07/11 00:23:30;;;;;;;9.98;8.95;;;;;;;19.82;62.54;101179.59;696899;28;21575;-64
2021/07/11 00:23:51;;;;;;;9.98;8.80;;;;;;;19.81;62.71;101178.72;698128;28;16339;-64
2021/07/11 00:24:13;;;;;;;9.40;8.43;;;;;;;19.79;62.89;101180.88;698593;28;22323;-64
2021/07/11 00:24:43;;;;;;;9.88;8.88;;;;;;;19.79;62.67;101189.91;697776;28;60839;-64
2021/07/11 00:25:06;;;;;;;9.52;8.55;;;;;;;19.78;62.72;101185.53;697793;28;68475;-64
2021/07/11 00:25:28;;;;;;;9.57;8.67;;;;;;;19.77;62.77;101178.34;697058;28;61983;-64
2021/07/11 00:25:49;;;;;;;9.38;8.43;;;;;;;19.77;62.44;101185.75;698642;28;43242;-64
2021/07/11 00:26:10;;;;;;;8.73;8.00;;;;;;;19.74;62.69;101189.75;699120;28;8103;-64
2021/07/11 00:26:31;;;;;;;9.55;8.68;;;;;;;19.74;62.79;101184.25;699065;28;22295;-64
2021/07/11 00:26:52;;;;;;;9.55;8.65;;;;;;;19.74;62.82;101187.00;699053;28;20862;-64
2021/07/11 00:27:14;;;;;;;9.48;8.48;;;;;;;19.73;62.79;101182.59;694816;28;45269;-64
2021/07/11 00:27:35;;;;;;;9.80;8.80;;;;;;;19.73;62.88;101184.50;695270;28;41606;-64
2021/07/11 00:27:57;;;;;;;9.90;8.90;;;;;;;19.71;62.93;101183.88;696662;28;1650;-64
2021/07/11 00:28:18;;;;;;;9.32;8.43;;;;;;;19.72;62.69;101189.13;695078;28;20564;-64
2021/07/11 00:28:39;;;;;;;9.30;8.35;;;;;;;19.70;62.86;101183.06;694789;28;22870;-64
2021/07/11 00:29:01;;;;;;;9.77;8.77;;;;;;;19.72;62.79;101188.31;696198;28;42180;-64
2021/07/11 00:29:22;;;;;;;9.30;8.40;;;;;;;19.72;62.79;101177.34;700685;28;47291;-65
2021/07/11 00:29:44;;;;;;;11.43;8.85;;;;;;;19.71;63.07;101176.50;701938;28;21335;-64
2021/07/11 00:30:06;;;;;;;10.05;9.05;;;;;;;19.73;63.20;101184.50;702097;28;22414;-64
2021/07/11 00:30:28;;;;;;;9.15;8.27;;;;;;;19.72;62.80;101183.66;700463;28;36191;-64
2021/07/11 00:30:49;;;;;;;9.50;8.60;;;;;;;19.73;62.92;101182.59;699068;28;45232;-64
2021/07/11 00:31:10;;;;;;;9.95;8.88;;;;;;;19.74;62.82;101180.69;699286;28;23583;-64
2021/07/11 00:31:31;;;;;;;11.48;8.90;;;;;;;19.73;63.16;101188.09;699205;28;23388;-64
2021/07/11 00:31:52;;;;;;;11.50;8.98;;;;;;;19.73;62.77;101188.09;698943;28;23463;-64
2021/07/11 00:32:15;;;;;;;9.80;8.80;;;;;;;19.73;62.78;101179.88;697076;28;69314;-64
2021/07/11 00:32:36;;;;;;;9.63;8.15;;;;;;;19.73;62.75;101187.22;698022;28;46416;-64
2021/07/11 00:32:58;;;;;;;9.35;8.40;;;;;;;19.73;63.09;101184.50;698552;28;21529;-65
2021/07/11 00:33:19;;;;;;;12.45;8.65;;;;;;;19.72;62.80;101185.56;698316;28;46476;-64
2021/07/11 00:33:40;;;;;;;9.85;8.82;;;;;;;19.71;62.84;101181.97;698754;28;21686;-64
2021/07/11 00:34:02;;;;;;;10.07;8.88;;;;;;;19.72;62.93;101183.66;699415;28;22483;-65
2021/07/11 00:34:23;;;;;;;10.43;8.80;;;;;;;19.71;62.93;101181.16;698545;28;46643;-64
2021/07/11 00:34:44;;;;;;;9.82;8.65;;;;;;;19.72;62.79;101183.66;699553;28;22308;-65
2021/07/11 00:35:06;;;;;;;11.15;8.80;;;;;;;19.71;62.79;101181.97;699517;28;23500;-64
2021/07/11 00:35:27;;;;;;;11.23;9.02;;;;;;;19.71;62.93;101181.16;698123;28;9134;-64
2021/07/11 00:35:50;;;;;;;11.40;8.50;;;;;;;19.72;62.87;101185.56;698116;28;23478;-64
2021/07/11 00:36:11;;;;;;;9.35;8.45;;;;;;;19.72;62.84;101180.09;697912;28;64838;-65
2021/07/11 00:36:32;;;;;;;9.95;8.65;;;;;;;19.72;62.69;101182.84;696244;28;22152;-64
2021/07/11 00:36:53;;;;;;;9.23;8.32;;;;;;;19.71;62.61;101179.22;692504;28;18772;-64
2021/07/11 00:37:15;;;;;;;9.55;8.65;;;;;;;19.73;62.49;101176.25;694723;28;906;-64
2021/07/11 00:37:36;;;;;;;9.82;8.70;;;;;;;19.71;62.41;101184.72;695230;28;46320;-64
2021/07/11 00:37:58;;;;;;;9.45;8.23;;;;;;;19.72;62.46;101180.91;696067;28;22435;-65
2021/07/11 00:38:21;;;;;;;9.27;8.38;;;;;;;19.72;62.47;101189.13;694435;28;46303;-64
2021/07/11 00:38:42;;;;;;;9.20;8.20;;;;;;;19.72;62.34;101178.19;695249;28;46313;-65
2021/07/11 00:39:04;;;;;;;9.93;8.40;;;;;;;19.72;62.61;101182.84;698997;28;24548;-64
2021/07/11 00:39:25;;;;;;;9.52;8.52;;;;;;;19.71;62.68;101184.72;694335;28;43704;-64
2021/07/11 00:39:46;;;;;;;10.88;8.75;;;;;;;19.71;62.72;101184.72;693371;28;23739;-65
2021/07/11 00:40:09;;;;;;;10.07;8.60;;;;;;;19.71;62.68;101183.88;694410;28;22484;-64
2021/07/11 00:40:33;;;;;;;9.73;8.73;;;;;;;19.71;62.59;101186.63;690217;28;115172;-64
2021/07/11 00:40:55;;;;;;;9.63;8.63;;;;;;;19.71;62.59;101181.97;690493;28;26902;-64
2021/07/11 00:41:16;;;;;;;10.02;8.75;;;;;;;19.71;62.57;101181.97;687921;28;46500;-64
2021/07/11 00:41:38;;;;;;;9.40;8.10;;;;;;;19.72;62.70;101182.84;691922;28;23483;-65
2021/07/11 00:42:00;;;;;;;9.35;8.35;;;;;;;19.72;62.70;101183.66;689213;28;67480;-64
2021/07/11 00:42:22;;;;;;;9.93;8.70;;;;;;;19.73;62.59;101187.22;692534;28;23474;-64
2021/07/11 00:42:44;;;;;;;9.50;8.60;;;;;;;19.72;62.38;101180.09;692838;28;70354;-64
2021/07/11 00:43:06;;;;;;;10.38;8.50;;;;;;;19.71;62.67;101187.47;694138;28;45284;-65
2021/07/11 00:43:28;;;;;;;9.40;8.50;;;;;;;19.70;62.70;101177.56;694215;28;20929;-64
2021/07/11 00:43:50;;;;;;;9.35;8.45;;;;;;;19.70;62.53;101185.78;693751;28;42835;-65
2021/07/11 00:44:17;;;;;;;9.80;8.80;;;;;;;19.70;62.75;101184.94;685622;28;125554;-65
2021/07/11 00:44:42;;;;;;;9.88;8.50;;;;;;;19.70;62.68;101177.56;685082;28;137602;-65
2021/07/11 00:45:04;;;;;;;9.25;8.35;;;;;;;19.70;62.49;101179.47;691247;28;22610;-64
2021/07/11 00:45:29;;;;;;;9.10;8.20;;;;;;;19.70;62.54;101182.19;685808;28;114727;-63
2021/07/11 00:45:51;;;;;;;9.45;8.38;;;;;;;19.70;62.61;101183.06;689699;28;45328;-64
2021/07/11 00:46:12;;;;;;;10.40;8.73;;;;;;;19.70;62.46;101177.56;693348;28;43713;-65
2021/07/11 00:46:34;;;;;;;10.10;8.70;;;;;;;19.68;62.66;101182.44;695367;28;18188;-64
2021/07/11 00:46:55;;;;;;;9.97;8.87;;;;;;;19.68;62.32;101179.69;694698;28;43748;-64
2021/07/11 00:47:17;;;;;;;9.73;8.73;;;;;;;19.67;62.66;101186.25;692957;28;44359;-64
2021/07/11 00:47:42;;;;;;;9.60;8.70;;;;;;;19.67;62.62;101183.50;691612;28;64025;-64
2021/07/11 00:48:04;;;;;;;9.73;8.75;;;;;;;19.67;62.81;101186.25;690806;28;90707;-64
2021/07/11 00:48:25;;;;;;;10.20;8.80;;;;;;;19.68;62.79;101181.59;691226;28;23430;-65
2021/07/11 00:48:47;;;;;;;11.55;8.60;;;;;;;19.69;62.84;101186.84;690494;28;22585;-64
2021/07/11 00:49:08;;;;;;;9.38;8.48;;;;;;;19.70;62.90;101185.78;692440;28;1335;-64
2021/07/11 00:49:31;;;;;;;9.40;8.50;;;;;;;19.70;62.58;101182.19;686088;28;44464;-64
2021/07/11 00:49:54;;;;;;;8.88;8.07;;;;;;;19.71;62.69;101184.72;685206;28;69406;-65
2021/07/11 00:50:17;;;;;;;9.57;8.57;;;;;;;19.71;62.60;101181.97;684234;28;58927;-65
2021/07/11 00:50:45;;;;;;;9.20;8.30;;;;;;;19.71;62.65;101179.22;683118;28;62896;-64
2021/07/11 00:51:10;;;;;;;9.68;8.68;;;;;;;19.72;62.46;101188.31;686179;28;115478;-64
2021/07/11 00:51:33;;;;;;;9.15;8.25;;;;;;;19.70;62.34;101183.06;690400;28;90730;-64
2021/07/11 00:51:54;;;;;;;9.02;8.15;;;;;;;19.71;62.35;101181.97;693950;28;1964;-64
2021/07/11 00:52:16;;;;;;;9.60;8.50;;;;;;;19.71;62.52;101183.88;694157;28;37502;-64
2021/07/11 00:52:40;;;;;;;9.15;8.18;;;;;;;19.70;62.60;101183.06;693978;28;51323;-64
2021/07/11 00:53:08;;;;;;;9.68;7.93;;;;;;;19.71;62.44;101181.97;691090;28;93977;-64
2021/07/11 00:53:29;;;;;;;10.50;8.55;;;;;;;19.69;62.63;101178.63;686474;28;116304;-64
2021/07/11 00:53:53;;;;;;;10.10;8.88;;;;;;;19.68;62.35;101178.84;689688;28;69436;-65
2021/07/11 00:54:17;;;;;;;9.68;8.73;;;;;;;19.67;62.69;101175.28;689563;28;92350;-65
2021/07/11 00:54:40;;;;;;;9.60;8.70;;;;;;;19.68;62.57;101187.91;691610;28;92258;-64
2021/07/11 00:55:06;;;;;;;9.32;8.35;;;;;;;19.67;62.45;101185.38;688849;28;111469;-65
2021/07/11 00:55:27;;;;;;;8.90;7.90;;;;;;;19.66;62.65;101181.81;693406;28;63205;-64
2021/07/11 00:55:51;;;;;;;9.52;8.52;;;;;;;19.66;62.66;101189.22;695358;28;20629;-64
2021/07/11 00:56:12;;;;;;;10.07;9.07;;;;;;;19.63;62.61;101183.09;690196;28;93708;-64
2021/07/11 00:56:34;;;;;;;9.88;8.95;;;;;;;19.61;62.56;101185.25;687081;28;65846;-64
2021/07/11 00:56:56;;;;;;;9.38;8.40;;;;;;;19.59;62.86;101179.16;689180;28;19743;-64
2021/07/11 00:57:18;;;;;;;9.35;8.35;;;;;;;19.60;62.62;101186.28;688856;28;1018;-64
2021/07/11 00:57:39;;;;;;;9.43;8.52;;;;;;;19.59;62.79;101181.03;688764;28;34811;-65
2021/07/11 00:58:03;;;;;;;9.70;8.70;;;;;;;19.59;62.82;101181.03;690914;28;45264;-64
2021/07/11 00:58:30;;;;;;;9.52;8.63;;;;;;;19.60;62.68;101190.94;692395;28;137888;-64
2021/07/11 00:58:52;;;;;;;9.20;8.30;;;;;;;19.58;62.75;101184.88;698303;28;21531;-64
2021/07/11 00:59:13;;;;;;;9.43;8.45;;;;;;;19.57;62.67;101185.91;699299;28;43512;-64
2021/07/11 00:59:36;;;;;;;9.63;8.48;;;;;;;19.57;62.80;101183.19;700618;28;45249;-64
2021/07/11 00:59:58;;;;;;;10.60;8.80;;;;;;;19.55;62.78;101177.94;695232;28;67472;-64
2021/07/11 01:00:21;;;;;;;10.57;8.50;;;;;;;19.57;62.85;101174.97;695283;28;45271;-65
2021/07/11 01:00:57;;;;;;;10.13;9.13;;;;;;;19.55;62.82;101177.94;688059;28;156524;-65
2021/07/11 01:01:25;;;;;;;11.27;8.88;;;;;;;19.57;62.75;101183.19;693195;28;92624;-64
2021/07/11 01:01:53;;;;;;;9.57;8.63;;;;;;;19.56;62.88;101176.88;693459;28;138571;-64
2021/07/11 01:02:17;;;;;;;9.25;8.35;;;;;;;19.57;62.85;101183.19;691867;28;136324;-64
2021/07/11 01:02:48;;;;;;;11.32;8.95;;;;;;;19.55;62.86;101183.41;692208;28;137983;-64
2021/07/11 01:03:11;;;;;;;9.98;8.68;;;;;;;19.56;62.93;101181.50;695239;28;107621;-64
2021/07/11 01:03:38;;;;;;;9.90;8.52;;;;;;;19.55;63.06;101180.66;691898;28;137491;-65
2021/07/11 01:04:10;;;;;;;9.85;8.85;;;;;;;19.55;62.88;101177.94;692250;28;137861;-65
2021/07/11 01:04:40;;;;;;;9.30;8.30;;;;;;;19.55;62.82;101182.59;696477;28;60688;-65
2021/07/11 01:05:07;;;;;;;9.55;8.55;;;;;;;19.55;62.90;101182.59;694143;28;60547;-64
2021/07/11 01:05:29;;;;;;;10.75;9.05;;;;;;;19.55;62.92;101186.16;692697;28;38911;-64
2021/07/11 01:05:52;;;;;;;10.77;9.25;;;;;;;19.55;63.13;101183.41;694847;28;45491;-64
2021/07/11 01:06:18;;;;;;;10.15;8.60;;;;;;;19.54;62.84;101180.88;695526;28;34996;-64
2021/07/11 01:06:40;;;;;;;9.73;8.70;;;;;;;19.54;62.95;101183.63;693714;28;92049;-64
2021/07/11 01:07:04;;;;;;;10.90;8.93;;;;;;;19.55;62.86;101188.06;692331;28;92434;-64
2021/07/11 01:07:35;;;;;;;9.77;8.88;;;;;;;19.55;62.80;101185.31;694324;28;63071;-63
2021/07/11 01:08:03;;;;;;;10.63;9.02;;;;;;;19.54;62.95;101186.38;692290;28;129262;-64
2021/07/11 01:08:33;;;;;;;10.32;9.30;;;;;;;19.54;63.04;101186.38;694065;28;138050;-65
2021/07/11 01:08:58;;;;;;;9.73;8.80;;;;;;;19.54;63.04;101187.19;695447;28;137904;-65
2021/07/11 01:09:24;;;;;;;10.70;8.70;;;;;;;19.53;62.77;101182.81;694691;28;113659;-63
2021/07/11 01:09:47;;;;;;;12.40;9.13;;;;;;;19.55;63.03;101182.59;690243;28;161917;-64
2021/07/11 01:10:15;;;;;;;11.57;9.05;;;;;;;19.54;62.87;101178.16;692227;28;46429;-64
2021/07/11 01:10:43;;;;;;;12.07;9.10;;;;;;;19.55;63.12;101174.34;691523;28;136227;-64
2021/07/11 01:11:06;;;;;;;10.48;8.93;;;;;;;19.55;62.85;101174.34;692459;28;137673;-64
2021/07/11 01:11:32;;;;;;;10.15;9.15;;;;;;;19.54;62.90;101181.72;695865;28;90764;-64
2021/07/11 01:11:56;;;;;;;10.43;9.00;;;;;;;19.54;62.95;101184.47;695524;28;115234;-64
2021/07/11 01:12:21;;;;;;;9.60;8.45;;;;;;;19.53;62.89;101177.31;696638;28;92383;-65
2021/07/11 01:12:47;;;;;;;10.38;8.88;;;;;;;19.51;63.04;101173.94;695206;28;38120;-64
2021/07/11 01:13:10;;;;;;;9.88;8.75;;;;;;;19.51;62.91;101175.88;692469;28;113724;-64
2021/07/11 01:13:35;;;;;;;10.90;9.13;;;;;;;19.49;63.11;101184.31;691794;28;77776;-64
2021/07/11 01:13:57;;;;;;;11.80;9.57;;;;;;;19.48;63.07;101179.06;692647;28;37977;-64
2021/07/11 01:14:22;;;;;;;9.75;8.70;;;;;;;19.45;63.20;101180.34;691634;28;47792;-64
2021/07/11 01:14:48;;;;;;;10.48;9.25;;;;;;;19.43;63.42;101180.56;687932;28;137803;-63
2021/07/11 01:15:14;;;;;;;11.40;9.07;;;;;;;19.44;63.09;101178.69;689819;28;61751;-64
2021/07/11 01:15:40;;;;;;;9.70;8.80;;;;;;;19.44;63.43;101176.75;688875;28;114945;-64
2021/07/11 01:16:07;;;;;;;9.48;8.68;;;;;;;19.43;63.26;101182.47;691913;28;66174;-64
2021/07/11 01:16:30;;;;;;;9.95;8.80;;;;;;;19.45;63.38;101177.59;688285;28;138442;-64
2021/07/11 01:17:00;;;;;;;11.82;9.15;;;;;;;19.45;63.44;101185.81;688997;28;132172;-64
2021/07/11 01:17:24;;;;;;;10.07;9.07;;;;;;;19.46;63.48;101176.53;688469;28;70476;-65
2021/07/11 01:17:47;;;;;;;10.18;8.60;;;;;;;19.47;63.36;101174.63;692609;28;83682;-64
2021/07/11 01:18:08;;;;;;;11.32;8.70;;;;;;;19.45;63.35;101175.72;697572;28;46540;-64
2021/07/11 01:18:37;;;;;;;9.85;8.85;;;;;;;19.47;63.34;101180.09;694904;28;116015;-64
2021/07/11 01:19:05;;;;;;;10.13;9.07;;;;;;;19.45;63.55;101178.44;690541;28;136382;-65
2021/07/11 01:19:43;;;;;;;10.15;9.15;;;;;;;19.45;63.43;101178.44;691279;28;136145;-64
2021/07/11 01:20:26;;;;;;;12.15;9.10;;;;;;;19.44;63.57;101179.50;693168;28;100528;-64
2021/07/11 01:20:50;;;;;;;9.77;8.88;;;;;;;19.46;63.54;101179.28;695291;28;62343;-64
2021/07/11 01:21:18;;;;;;;9.35;8.40;;;;;;;19.47;63.38;101171.88;697592;28;63500;-65
2021/07/11 01:21:53;;;;;;;9.88;8.88;;;;;;;19.48;63.67;101179.06;691875;28;132445;-64
2021/07/11 01:22:26;;;;;;;9.43;8.43;;;;;;;19.48;63.52;101179.88;689103;28;137737;-64
2021/07/11 01:22:52;;;;;;;10.32;8.70;;;;;;;19.48;63.49;101181.78;689151;28;68337;-65
2021/07/11 01:23:22;;;;;;;9.93;8.93;;;;;;;19.46;63.72;101179.28;686496;28;138697;-65
2021/07/11 01:23:48;;;;;;;10.55;9.13;;;;;;;19.47;63.64;101177.38;685133;28;123151;-65
2021/07/11 01:24:15;;;;;;;10.27;9.37;;;;;;;19.46;63.55;101176.53;687634;28;139040;-65
2021/07/11 01:24:40;;;;;;;10.50;9.00;;;;;;;19.46;64.06;101182.03;690687;28;138819;-64
2021/07/11 01:25:06;;;;;;;9.25;8.38;;;;;;;19.46;63.61;101173.81;693978;28;116176;-64
2021/07/11 01:25:35;;;;;;;9.98;8.98;;;;;;;19.44;63.80;101168.53;690449;28;138540;-64
2021/07/11 01:25:58;;;;;;;10.82;9.73;;;;;;;19.44;63.68;101173.19;689509;28;137879;-65
2021/07/11 01:26:20;;;;;;;10.65;9.30;;;;;;;19.45;63.90;101178.44;692392;28;44540;-64
2021/07/11 01:26:46;;;;;;;11.48;9.13;;;;;;;19.45;63.87;101172.97;692114;28;47752;-64
2021/07/11 01:27:07;;;;;;;11.70;9.05;;;;;;;19.45;63.74;101172.97;686065;28;133965;-64
2021/07/11 01:27:30;;;;;;;9.95;9.02;;;;;;;19.45;63.66;101178.44;690120;28;22386;-64
2021/07/11 01:27:51;;;;;;;10.18;9.18;;;;;;;19.44;63.87;101176.75;689495;28;69434;-64
2021/07/11 01:28:15;;;;;;;10.52;8.80;;;;;;;19.44;63.64;101174.03;691737;28;11390;-65
2021/07/11 01:28:41;;;;;;;11.20;9.00;;;;;;;19.42;63.86;101169.84;685261;28;139762;-64
2021/07/11 01:29:08;;;;;;;10.53;9.20;;;;;;;19.44;63.88;101176.75;686645;28;58995;-64
2021/07/11 01:29:29;;;;;;;10.27;9.18;;;;;;;19.40;63.78;101170.09;688132;28;45231;-63
2021/07/11 01:29:52;;;;;;;10.50;8.98;;;;;;;19.43;63.88;101175.06;690433;28;24108;-65
2021/07/11 01:30:15;;;;;;;10.00;8.98;;;;;;;19.42;63.84;101178.91;691012;28;39187;-65
2021/07/11 01:30:37;;;;;;;10.25;9.10;;;;;;;19.43;63.58;101168.78;690313;28;102389;-64
2021/07/11 01:30:59;;;;;;;10.43;9.10;;;;;;;19.43;63.64;101171.50;695687;28;46280;-64
2021/07/11 01:31:22;;;;;;;9.77;8.77;;;;;;;19.42;63.66;101175.34;699271;28;21562;-64
2021/07/11 01:31:44;;;;;;;9.73;8.63;;;;;;;19.41;63.55;101169.00;698363;28;90680;-65
2021/07/11 01:32:15;;;;;;;9.80;8.85;;;;;;;19.40;63.57;101178.31;697058;28;61418;-63
2021/07/11 01:32:42;;;;;;;10.43;9.35;;;;;;;19.39;63.77;101171.13;697816;28;61486;-65
2021/07/11 01:33:06;;;;;;;10.20;9.20;;;;;;;19.38;63.75;101179.56;697634;28;35883;-64
2021/07/11 01:33:31;;;;;;;10.05;8.82;;;;;;;19.37;63.84;101177.88;696108;28;90453;-65
2021/07/11 01:33:53;;;;;;;10.25;8.50;;;;;;;19.36;63.64;101179.81;696635;28;92264;-65
2021/07/11 01:34:14;;;;;;;9.80;8.55;;;;;;;19.37;63.79;101180.63;697518;28;46378;-65
2021/07/11 01:34:36;;;;;;;12.18;9.05;;;;;;;19.36;63.82;101177.06;697426;28;46295;-65
2021/07/11 01:35:00;;;;;;;10.68;9.35;;;;;;;19.36;63.84;101179.81;697370;28;21274;-65
2021/07/11 01:35:23;;;;;;;10.00;9.07;;;;;;;19.33;63.88;101172.03;692653;28;87687;-64
2021/07/11 01:35:47;;;;;;;10.00;9.00;;;;;;;19.34;63.84;101179.19;689143;28;90332;-64
2021/07/11 01:36:10;;;;;;;10.02;9.02;;;;;;;19.33;63.86;101183.00;691867;28;45397;-64
2021/07/11 01:36:31;;;;;;;9.88;8.48;;;;;;;19.33;63.92;101179.41;691125;28;70401;-65
2021/07/11 01:36:55;;;;;;;10.98;9.23;;;;;;;19.34;64.04;101178.34;694057;28;39965;-64
2021/07/11 01:37:17;;;;;;;12.55;9.40;;;;;;;19.35;63.94;101189.06;693598;28;66857;-64
2021/07/11 01:37:38;;;;;;;10.68;9.27;;;;;;;19.34;63.88;101184.69;696222;28;45274;-64
2021/07/11 01:38:00;;;;;;;12.07;9.45;;;;;;;19.35;63.77;101180.03;699689;28;7503;-64
2021/07/11 01:38:22;;;;;;;11.80;9.68;;;;;;;19.34;63.70;101181.06;698564;28;1001;-63
2021/07/11 01:38:47;;;;;;;9.98;8.98;;;;;;;19.34;63.83;101190.16;696798;28;69415;-64
2021/07/11 01:39:09;;;;;;;10.13;8.68;;;;;;;19.33;63.85;101185.72;695339;28;115215;-64
2021/07/11 01:39:35;;;;;;;9.35;8.35;;;;;;;19.32;63.76;101180.47;688980;28;128757;-64
2021/07/11 01:39:57;;;;;;;10.70;8.75;;;;;;;19.30;63.81;101186.16;693831;28;21532;-65
2021/07/11 01:40:19;;;;;;;9.43;8.52;;;;;;;19.29;64.15;101181.75;692872;28;35110;-64
2021/07/11 01:40:44;;;;;;;11.10;9.43;;;;;;;19.29;63.73;101183.66;690258;28;32132;-64
2021/07/11 01:41:08;;;;;;;10.63;9.18;;;;;;;19.26;63.91;101185.78;683775;28;180665;-64
2021/07/11 01:41:29;;;;;;;9.35;8.45;;;;;;;19.26;63.73;101190.41;692107;28;69475;-64
2021/07/11 01:41:51;;;;;;;9.52;8.63;;;;;;;19.25;63.73;101188.75;694944;28;22408;-65
2021/07/11 01:42:15;;;;;;;12.00;9.38;;;;;;;19.22;64.00;101184.56;695113;28;1285;-64
2021/07/11 01:42:47;;;;;;;11.18;8.95;;;;;;;19.21;64.18;101185.59;694046;28;96092;-64
2021/07/11 01:43:11;;;;;;;9.90;8.90;;;;;;;19.22;64.19;101189.19;693249;28;14857;-64
2021/07/11 01:43:34;;;;;;;10.05;8.98;;;;;;;19.22;64.20;101183.72;693323;28;47023;-64
2021/07/11 01:43:57;;;;;;;10.02;8.93;;;;;;;19.22;64.28;101181.00;691576;28;67744;-65
2021/07/11 01:44:21;;;;;;;9.93;8.93;;;;;;;19.19;64.37;101184.16;690372;28;84404;-64
2021/07/11 01:44:43;;;;;;;9.52;8.63;;;;;;;19.19;64.39;101184.16;691966;28;69828;-65
2021/07/11 01:45:06;;;;;;;9.85;8.88;;;;;;;19.18;64.34;101186.03;691285;28;43176;-64
2021/07/11 01:45:28;;;;;;;10.23;9.13;;;;;;;19.18;64.41;101187.97;690125;28;69461;-64
2021/07/11 01:45:51;;;;;;;10.63;9.13;;;;;;;19.17;64.43;101184.41;692099;28;67508;-64
2021/07/11 01:46:13;;;;;;;10.00;8.95;;;;;;;19.16;64.34;101182.72;693675;28;1253;-65
2021/07/11 01:46:34;;;;;;;10.65;8.98;;;;;;;19.17;64.36;101191.75;691036;28;9931;-65
2021/07/11 01:46:56;;;;;;;9.85;8.85;;;;;;;19.15;64.04;101180.19;691049;28;12291;-64
2021/07/11 01:47:18;;;;;;;9.35;8.45;;;;;;;19.16;64.25;101181.88;693755;28;37227;-64
2021/07/11 01:47:40;;;;;;;9.70;8.80;;;;;;;19.16;64.40;101190.09;693794;28;44367;-64
2021/07/11 01:48:02;;;;;;;9.85;8.80;;;;;;;19.14;64.39;101181.25;696573;28;44339;-65
2021/07/11 01:48:24;;;;;;;10.18;9.07;;;;;;;19.14;64.34;101181.25;696332;28;45382;-64
2021/07/11 01:48:49;;;;;;;9.90;9.00;;;;;;;19.13;64.25;101183.16;693456;28;92288;-64
2021/07/11 01:49:10;;;;;;;9.38;8.48;;;;;;;19.11;64.33;101177.06;694685;28;44379;-64